createdAt,value
2019-02-02T00:00:43.420Z,108.00
2019-02-02T00:03:12.398Z,109.33
2019-02-02T00:05:41.034Z,108.97
2019-02-02T00:08:09.726Z,107.80
2019-02-02T00:10:38.361Z,108.70
2019-02-02T00:13:06.861Z,109.13
2019-02-02T00:15:35.541Z,106.87
2019-02-02T00:18:04.378Z,104.97
2019-02-02T00:20:33.018Z,106.17
2019-02-02T00:23:01.707Z,104.47
2019-02-02T00:25:30.272Z,105.87
2019-02-02T00:27:58.914Z,106.53
2019-02-02T00:30:27.518Z,105.43
2019-02-02T00:32:56.080Z,102.77
2019-02-02T00:35:24.734Z,106.17
2019-02-02T00:37:53.278Z,106.80
2019-02-02T00:40:21.925Z,108.23
2019-02-02T00:42:50.489Z,109.47
2019-02-02T00:45:20.483Z,107.83
2019-02-02T00:47:49.471Z,102.67
2019-02-02T00:50:18.111Z,104.03
2019-02-02T00:52:46.736Z,104.53
2019-02-02T00:55:19.076Z,103.43
2019-02-02T00:57:53.442Z,104.33
2019-02-02T01:00:23.926Z,104.90
2019-02-02T01:02:52.505Z,97.80
2019-02-02T01:05:22.186Z,104.03
2019-02-02T01:17:53.520Z,103.73
2019-02-02T01:20:22.079Z,103.07
2019-02-02T01:22:51.603Z,102.27
2019-02-02T01:25:20.295Z,100.93
2019-02-02T01:27:48.932Z,104.33
2019-02-02T01:30:19.564Z,102.47
2019-02-02T01:32:48.257Z,103.70
2019-02-02T01:35:18.133Z,107.77
2019-02-02T01:37:46.766Z,102.77
2019-02-02T01:40:20.779Z,101.83
2019-02-02T01:42:49.710Z,99.83
2019-02-02T01:45:26.539Z,101.00
2019-02-02T01:47:55.479Z,101.57
2019-02-02T01:50:25.910Z,99.43
2019-02-02T01:52:54.605Z,100.27
2019-02-02T01:55:23.346Z,100.77
2019-02-02T01:57:51.985Z,103.63
2019-02-02T02:00:29.209Z,101.03
2019-02-02T02:02:57.864Z,100.70
2019-02-02T02:05:26.466Z,100.93
2019-02-02T02:07:55.229Z,101.30
2019-02-02T02:10:23.879Z,99.87
2019-02-02T02:12:52.536Z,101.03
2019-02-02T02:15:21.284Z,101.17
2019-02-02T02:17:49.905Z,100.00
2019-02-02T02:20:19.652Z,99.63
2019-02-02T02:22:49.438Z,99.73
2019-02-02T02:25:20.690Z,98.77
2019-02-02T02:27:49.644Z,97.67
2019-02-02T02:30:22.826Z,98.50
2019-02-02T02:32:52.093Z,98.03
2019-02-02T02:35:20.654Z,97.67
2019-02-02T02:37:49.275Z,99.83
2019-02-02T02:40:22.913Z,100.10
2019-02-02T02:42:52.155Z,97.97
2019-02-02T02:45:21.156Z,98.23
2019-02-02T02:47:49.725Z,99.27
2019-02-02T02:50:20.010Z,98.63
2019-02-02T02:52:48.653Z,99.27
2019-02-02T02:55:17.502Z,98.90
2019-02-02T02:57:46.476Z,98.13
2019-02-02T03:00:20.424Z,98.63
2019-02-02T03:02:49.163Z,95.90
2019-02-02T03:05:17.840Z,96.83
2019-02-02T03:07:46.858Z,97.10
2019-02-02T03:10:20.277Z,97.30
2019-02-02T03:12:48.931Z,97.20
2019-02-02T03:15:18.749Z,98.43
2019-02-02T03:17:48.148Z,98.03
2019-02-02T03:20:16.927Z,99.87
2019-02-02T03:22:45.555Z,98.60
2019-02-02T03:25:25.635Z,97.33
2019-02-02T03:27:54.207Z,98.27
2019-02-02T03:30:22.779Z,93.67
2019-02-02T03:32:51.390Z,97.87
2019-02-02T03:35:22.021Z,97.67
2019-02-02T03:37:50.609Z,93.63
2019-02-02T03:40:20.785Z,95.17
2019-02-02T03:42:49.550Z,97.13
2019-02-02T03:45:20.117Z,94.60
2019-02-02T03:47:48.801Z,96.57
2019-02-02T03:50:17.299Z,95.23
2019-02-02T03:52:45.868Z,95.20
2019-02-02T03:55:15.652Z,94.70
2019-02-02T03:57:44.215Z,95.80
2019-02-02T04:00:23.430Z,93.23
2019-02-02T04:02:52.001Z,94.87
2019-02-02T04:05:28.678Z,93.50
2019-02-02T04:07:57.245Z,92.90
2019-02-02T04:10:26.194Z,95.47
2019-02-02T04:12:54.799Z,93.97
2019-02-02T04:15:23.437Z,95.17
2019-02-02T04:17:52.002Z,94.27
2019-02-02T04:20:22.318Z,94.80
2019-02-02T04:22:51.510Z,93.93
2019-02-02T04:25:21.251Z,96.93
2019-02-02T04:27:49.918Z,96.00
2019-02-02T04:30:20.951Z,97.23
2019-02-02T04:32:49.450Z,94.77
2019-02-02T04:35:18.150Z,97.93
2019-02-02T04:37:46.643Z,95.30
2019-02-02T04:40:15.716Z,92.73
2019-02-02T04:42:44.333Z,95.10
2019-02-02T04:45:17.688Z,95.30
2019-02-02T04:47:46.252Z,94.33
2019-02-02T04:50:19.601Z,95.40
2019-02-02T04:52:48.534Z,97.07
2019-02-02T04:55:18.980Z,94.83
2019-02-02T04:57:47.622Z,95.83
2019-02-02T05:00:22.036Z,95.13
2019-02-02T05:02:50.798Z,94.30
2019-02-02T05:05:19.489Z,95.50
2019-02-02T05:07:48.054Z,96.10
2019-02-02T05:10:18.620Z,95.67
2019-02-02T05:12:47.226Z,94.07
2019-02-02T05:15:15.858Z,95.90
2019-02-02T05:17:44.369Z,96.43
2019-02-02T05:20:14.976Z,95.53
2019-02-02T05:22:43.558Z,94.50
2019-02-02T05:25:12.125Z,95.40
2019-02-02T05:27:40.664Z,95.80
2019-02-02T05:30:23.898Z,95.03
2019-02-02T05:32:52.511Z,95.30
2019-02-02T05:35:21.085Z,94.73
2019-02-02T05:37:49.655Z,93.93
2019-02-02T05:40:22.800Z,94.20
2019-02-02T05:42:51.697Z,93.13
2019-02-02T05:45:21.961Z,96.03
2019-02-02T05:47:50.563Z,95.07
2019-02-02T05:50:23.478Z,96.47
2019-02-02T05:52:52.343Z,93.90
2019-02-02T05:55:22.548Z,96.30
2019-02-02T05:57:51.117Z,93.63
2019-02-02T06:00:24.437Z,96.23
2019-02-02T06:02:53.040Z,92.27
2019-02-02T06:05:22.553Z,95.60
2019-02-02T06:07:51.044Z,96.23
2019-02-02T06:10:20.473Z,95.37
2019-02-02T06:12:49.101Z,94.53
2019-02-02T06:15:17.665Z,95.03
2019-02-02T06:17:46.291Z,51.63
2019-02-02T06:20:16.059Z,19.63
2019-02-02T06:22:44.629Z,97.17
2019-02-02T06:25:14.762Z,19.73
2019-02-02T06:27:43.294Z,18.43
2019-02-02T06:30:17.219Z,21.27
2019-02-02T06:32:45.819Z,92.83
2019-02-02T06:35:15.243Z,18.07
2019-02-02T06:37:43.821Z,94.00
2019-02-02T06:40:14.189Z,95.70
2019-02-02T06:42:43.165Z,94.53
2019-02-02T06:45:32.693Z,94.53
2019-02-02T06:48:01.194Z,93.57
2019-02-02T06:50:29.689Z,93.40
2019-02-02T06:52:58.796Z,91.83
2019-02-02T06:55:27.367Z,94.30
2019-02-02T06:57:56.009Z,93.07
2019-02-02T07:00:26.747Z,94.63
2019-02-02T07:02:55.475Z,94.27
2019-02-02T07:05:24.101Z,94.60
2019-02-02T07:07:53.584Z,91.70
2019-02-02T07:10:29.297Z,93.53
2019-02-02T07:12:57.967Z,93.23
2019-02-02T07:15:28.608Z,94.80
2019-02-02T07:17:57.251Z,94.87
2019-02-02T07:20:25.787Z,93.40
2019-02-02T07:22:54.371Z,94.87
2019-02-02T07:25:23.014Z,96.07
2019-02-02T07:27:51.691Z,92.77
2019-02-02T07:30:28.572Z,95.47
2019-02-02T07:32:53.136Z,100.77
2019-02-02T07:35:21.907Z,97.47
2019-02-02T07:37:50.485Z,99.03
2019-02-02T07:40:20.319Z,97.50
2019-02-02T07:42:49.009Z,101.13
2019-02-02T07:45:23.429Z,99.07
2019-02-02T07:47:52.066Z,97.63
2019-02-02T07:50:20.593Z,95.90
2019-02-02T07:52:49.236Z,95.17
2019-02-02T07:55:22.467Z,97.77
2019-02-02T07:57:51.147Z,93.63
2019-02-02T08:00:25.759Z,98.27
2019-02-02T08:02:54.327Z,99.20
2019-02-02T08:05:23.003Z,103.23
2019-02-02T08:07:51.596Z,98.23
2019-02-02T08:10:20.617Z,95.97
2019-02-02T08:12:49.302Z,95.47
2019-02-02T08:15:20.643Z,96.40
2019-02-02T08:17:49.276Z,94.57
2019-02-02T08:20:17.882Z,95.33
2019-02-02T08:22:46.471Z,93.33
2019-02-02T08:25:17.855Z,94.97
2019-02-02T08:27:46.270Z,93.87
2019-02-02T08:30:20.100Z,92.57
2019-02-02T08:32:49.101Z,93.77
2019-02-02T08:35:17.703Z,93.33
2019-02-02T08:37:46.353Z,94.03
2019-02-02T08:40:17.794Z,92.90
2019-02-02T08:42:46.328Z,92.93
2019-02-02T08:45:15.310Z,93.03
2019-02-02T08:47:43.884Z,94.00
2019-02-02T08:50:30.357Z,94.53
2019-02-02T08:52:58.932Z,18.43
2019-02-02T08:55:27.494Z,20.27
2019-02-02T08:57:56.236Z,17.23
2019-02-02T09:00:24.787Z,18.47
2019-02-02T09:02:53.357Z,18.23
2019-02-02T09:05:23.466Z,18.30
2019-02-02T09:07:51.963Z,19.40
2019-02-02T09:10:25.241Z,18.40
2019-02-02T09:12:53.777Z,18.57
2019-02-02T09:15:22.417Z,18.73
2019-02-02T09:17:51.042Z,18.40
2019-02-02T09:20:19.584Z,19.03
2019-02-02T09:22:48.150Z,18.80
2019-02-02T09:25:18.083Z,18.37
2019-02-02T09:27:46.767Z,17.90
2019-02-02T09:30:29.859Z,18.73
2019-02-02T09:32:58.487Z,20.90
2019-02-02T09:35:27.502Z,18.13
2019-02-02T09:37:56.142Z,19.60
2019-02-02T09:40:25.648Z,20.53
2019-02-02T09:42:54.575Z,19.40
2019-02-02T09:45:24.318Z,19.73
2019-02-02T09:47:52.991Z,20.70
2019-02-02T09:50:24.668Z,20.83
2019-02-02T09:52:53.237Z,20.00
2019-02-02T09:55:23.559Z,19.80
2019-02-02T09:57:55.004Z,20.17
2019-02-02T10:00:25.935Z,20.83
2019-02-02T10:02:54.662Z,20.30
2019-02-02T10:05:23.300Z,20.20
2019-02-02T10:07:51.942Z,21.13
2019-02-02T10:10:22.479Z,21.10
2019-02-02T10:12:51.424Z,20.97
2019-02-02T10:15:20.066Z,18.20
2019-02-02T10:17:49.804Z,21.60
2019-02-02T10:20:24.074Z,20.77
2019-02-02T10:22:52.781Z,21.20
2019-02-02T10:25:23.422Z,22.17
2019-02-02T10:27:52.056Z,21.77
2019-02-02T10:30:23.796Z,21.00
2019-02-02T10:32:52.452Z,22.27
2019-02-02T10:35:21.044Z,22.03
2019-02-02T10:37:49.567Z,22.30
2019-02-02T10:40:18.060Z,24.27
2019-02-02T10:42:46.717Z,23.33
2019-02-02T10:45:16.689Z,23.17
2019-02-02T10:47:45.267Z,21.70
2019-02-02T10:50:21.828Z,22.60
2019-02-02T10:52:50.460Z,21.97
2019-02-02T10:55:19.091Z,22.60
2019-02-02T10:57:47.768Z,24.00
2019-02-02T11:00:19.378Z,25.20
2019-02-02T11:02:47.945Z,23.43
2019-02-02T11:05:16.731Z,21.33
2019-02-02T11:07:45.623Z,25.37
2019-02-02T11:10:19.887Z,23.27
2019-02-02T11:12:48.561Z,23.63
2019-02-02T11:15:22.592Z,23.67
2019-02-02T11:17:51.592Z,27.37
2019-02-02T11:20:28.992Z,25.77
2019-02-02T11:22:57.750Z,26.07
2019-02-02T11:25:26.209Z,24.63
2019-02-02T11:27:54.867Z,25.17
2019-02-02T11:30:23.633Z,23.93
2019-02-02T11:32:52.181Z,23.90
2019-02-02T11:35:21.921Z,23.90
2019-02-02T11:37:51.053Z,24.20
2019-02-02T11:40:28.344Z,22.47
2019-02-02T11:42:57.073Z,23.57
2019-02-02T11:45:25.587Z,23.33
2019-02-02T11:47:54.237Z,23.47
2019-02-02T11:50:23.697Z,23.20
2019-02-02T11:52:52.347Z,23.07
2019-02-02T11:55:25.626Z,26.93
2019-02-02T11:57:54.234Z,26.83
2019-02-02T12:00:23.662Z,120.10
2019-02-02T12:02:52.238Z,111.13
2019-02-02T12:05:20.930Z,81.13
2019-02-02T12:07:49.876Z,154.10
2019-02-02T12:10:21.042Z,117.30
2019-02-02T12:12:49.767Z,111.73
2019-02-02T12:15:19.405Z,107.53
2019-02-02T12:17:49.191Z,108.97
2019-02-02T12:20:19.474Z,106.87
2019-02-02T12:22:49.775Z,108.00
2019-02-02T12:25:18.415Z,105.30
2019-02-02T12:27:47.036Z,109.33
2019-02-02T12:30:18.239Z,107.90
2019-02-02T12:32:46.888Z,108.40
2019-02-02T12:35:18.023Z,108.10
2019-02-02T12:37:46.955Z,25.00
2019-02-02T12:40:17.492Z,26.07
2019-02-02T12:42:45.930Z,26.27
2019-02-02T12:45:20.528Z,29.03
2019-02-02T12:47:49.333Z,26.37
2019-02-02T12:50:19.754Z,25.57
2019-02-02T12:52:48.339Z,26.03
2019-02-02T12:55:17.014Z,24.63
2019-02-02T12:57:45.654Z,25.90
2019-02-02T13:00:18.924Z,25.80
2019-02-02T13:02:48.111Z,28.60
2019-02-02T13:05:19.393Z,25.53
2019-02-02T13:07:48.017Z,25.97
2019-02-02T13:10:24.608Z,26.00
2019-02-02T13:12:52.833Z,25.30
2019-02-02T13:15:21.497Z,24.30
2019-02-02T13:17:50.174Z,24.93
2019-02-02T13:20:19.770Z,25.80
2019-02-02T13:22:48.826Z,25.43
2019-02-02T13:25:22.057Z,25.83
2019-02-02T13:27:50.693Z,24.63
2019-02-02T13:30:25.115Z,27.93
2019-02-02T13:32:53.767Z,29.60
2019-02-02T13:35:23.212Z,30.23
2019-02-02T13:37:51.889Z,30.07
2019-02-02T13:40:22.794Z,28.23
2019-02-02T13:42:51.454Z,29.30
2019-02-02T13:45:21.534Z,28.57
2019-02-02T13:47:50.112Z,29.87
2019-02-02T13:50:19.524Z,35.90
2019-02-02T13:52:49.684Z,34.73
2019-02-02T13:55:18.343Z,32.77
2019-02-02T13:57:46.986Z,37.00
2019-02-02T14:00:18.788Z,39.43
2019-02-02T14:02:47.358Z,41.23
2019-02-02T14:05:17.191Z,39.70
2019-02-02T14:07:45.868Z,41.20
2019-02-02T14:10:19.598Z,42.27
2019-02-02T14:12:48.163Z,41.97
2019-02-02T14:15:16.780Z,41.10
2019-02-02T14:17:45.416Z,39.23
2019-02-02T14:20:14.761Z,34.00
2019-02-02T14:22:43.789Z,35.50
2019-02-02T14:25:14.046Z,33.57
2019-02-02T14:27:42.609Z,32.07
2019-02-02T14:30:16.684Z,30.13
2019-02-02T14:32:45.323Z,31.97
2019-02-02T14:35:18.788Z,33.23
2019-02-02T14:37:47.404Z,32.87
2019-02-02T14:40:18.599Z,31.93
2019-02-02T14:42:47.212Z,32.47
2019-02-02T14:45:17.808Z,31.80
2019-02-02T14:47:46.456Z,31.80
2019-02-02T14:50:18.962Z,31.57
2019-02-02T14:52:46.922Z,31.17
2019-02-02T14:55:17.408Z,32.00
2019-02-02T14:57:45.978Z,31.17
2019-02-02T15:00:22.437Z,31.27
2019-02-02T15:02:51.119Z,29.70
2019-02-02T15:05:21.292Z,30.23
2019-02-02T15:07:49.816Z,30.47
2019-02-02T15:10:18.681Z,30.53
2019-02-02T15:12:48.267Z,32.07
2019-02-02T15:15:17.535Z,32.47
2019-02-02T15:17:46.178Z,36.60
2019-02-02T15:20:22.156Z,36.90
2019-02-02T15:22:50.156Z,32.67
2019-02-02T15:25:19.117Z,36.73
2019-02-02T15:27:47.750Z,39.30
2019-02-02T15:30:18.924Z,41.27
2019-02-02T15:32:47.556Z,40.20
2019-02-02T15:35:16.203Z,46.00
2019-02-02T15:37:44.846Z,45.37
2019-02-02T15:40:17.945Z,45.67
2019-02-02T15:42:46.596Z,48.03
2019-02-02T15:45:20.316Z,49.27
2019-02-02T15:47:48.809Z,52.17
2019-02-02T15:50:17.582Z,51.80
2019-02-02T15:52:46.858Z,50.60
2019-02-02T15:55:17.966Z,42.33
2019-02-02T15:57:46.459Z,48.13
2019-02-02T16:00:35.171Z,39.93
2019-02-02T16:03:03.813Z,41.50
2019-02-02T16:05:32.967Z,47.63
2019-02-02T16:08:04.067Z,46.90
2019-02-02T16:10:33.616Z,46.70
2019-02-02T16:13:02.186Z,48.30
2019-02-02T16:15:33.929Z,41.93
2019-02-02T16:18:01.174Z,39.90
2019-02-02T16:20:37.854Z,41.07
2019-02-02T16:23:06.417Z,49.63
2019-02-02T16:25:35.011Z,48.13
2019-02-02T16:28:03.604Z,47.10
2019-02-02T16:30:32.682Z,45.20
2019-02-02T16:33:01.252Z,43.17
2019-02-02T16:35:29.949Z,49.73
2019-02-02T16:38:00.813Z,37.50
2019-02-02T16:40:30.476Z,47.53
2019-02-02T16:42:59.079Z,48.90
2019-02-02T16:45:35.591Z,47.13
2019-02-02T16:48:05.310Z,46.67
2019-02-02T16:50:33.950Z,46.07
2019-02-02T16:53:02.524Z,43.03
2019-02-02T16:55:31.076Z,43.47
2019-02-02T16:57:59.639Z,47.07
2019-02-02T17:00:30.675Z,41.93
2019-02-02T17:02:59.550Z,38.50
2019-02-02T17:05:28.109Z,42.47
2019-02-02T17:07:56.676Z,45.00
2019-02-02T17:10:27.408Z,43.17
2019-02-02T17:12:55.973Z,43.67
2019-02-02T17:15:24.536Z,43.73
2019-02-02T17:17:53.235Z,45.13
2019-02-02T17:20:27.052Z,46.53
2019-02-02T17:22:55.718Z,43.00
2019-02-02T17:25:24.311Z,44.80
2019-02-02T17:27:52.999Z,46.83
2019-02-02T17:30:24.738Z,43.50
2019-02-02T17:32:55.543Z,44.47
2019-02-02T17:35:24.166Z,44.93
2019-02-02T17:37:52.812Z,45.30
2019-02-02T17:40:23.524Z,48.87
2019-02-02T17:42:52.123Z,46.73
2019-02-02T17:45:23.666Z,35.60
2019-02-02T17:47:52.339Z,49.27
2019-02-02T17:50:22.570Z,44.53
2019-02-02T17:52:51.219Z,44.30
2019-02-02T17:55:19.908Z,42.87
2019-02-02T17:57:48.557Z,33.70
2019-02-02T18:00:30.546Z,39.33
2019-02-02T18:03:00.656Z,39.57
2019-02-02T18:05:29.297Z,40.80
2019-02-02T18:07:57.915Z,39.63
2019-02-02T18:10:26.554Z,45.30
2019-02-02T18:12:55.188Z,41.50
2019-02-02T18:15:26.565Z,39.00
2019-02-02T18:17:55.124Z,39.50
2019-02-02T18:20:23.706Z,35.77
2019-02-02T18:22:52.379Z,34.97
2019-02-02T18:25:22.591Z,36.40
2019-02-02T18:27:52.134Z,41.30
2019-02-02T18:30:22.536Z,41.33
2019-02-02T18:32:51.298Z,36.80
2019-02-02T18:35:20.046Z,35.77
2019-02-02T18:37:48.643Z,41.00
2019-02-02T18:40:25.352Z,44.20
2019-02-02T18:42:54.023Z,41.57
2019-02-02T18:45:27.244Z,39.63
2019-02-02T18:47:55.894Z,39.23
2019-02-02T18:50:25.068Z,60.33
2019-02-02T18:52:58.840Z,45.93
2019-02-02T18:55:39.792Z,37.53
2019-02-02T18:58:08.434Z,45.10
2019-02-02T19:00:37.459Z,45.57
2019-02-02T19:03:06.460Z,33.93
2019-02-02T19:05:35.019Z,39.53
2019-02-02T19:08:03.661Z,40.23
2019-02-02T19:10:37.666Z,35.43
2019-02-02T19:13:08.134Z,41.03
2019-02-02T19:15:36.731Z,34.70
2019-02-02T19:18:06.820Z,35.73
2019-02-02T19:20:35.382Z,42.40
2019-02-02T19:23:04.022Z,39.73
2019-02-02T19:25:32.707Z,39.17
2019-02-02T19:28:01.358Z,35.17
2019-02-02T19:30:35.045Z,33.37
2019-02-02T19:33:03.731Z,33.17
2019-02-02T19:35:32.363Z,36.37
2019-02-02T19:38:01.105Z,36.63
2019-02-02T19:40:32.659Z,36.13
2019-02-02T19:43:01.322Z,38.07
2019-02-02T19:45:30.051Z,32.83
2019-02-02T19:48:00.352Z,29.20
2019-02-02T19:50:29.679Z,32.60
2019-02-02T19:52:58.311Z,28.53
2019-02-02T19:55:26.997Z,32.87
2019-02-02T19:57:55.627Z,32.53
2019-02-02T20:00:29.017Z,24.23
2019-02-02T20:02:57.673Z,26.33
2019-02-02T20:05:28.928Z,21.90
2019-02-02T20:07:56.541Z,20.93
2019-02-02T20:10:25.272Z,21.10
2019-02-02T20:12:53.827Z,21.70
2019-02-02T20:15:27.138Z,22.03
2019-02-02T20:17:55.825Z,26.03
2019-02-02T20:20:26.003Z,28.40
2019-02-02T20:22:54.865Z,30.53
2019-02-02T20:25:23.550Z,29.37
2019-02-02T20:27:52.056Z,26.40
2019-02-02T20:30:23.516Z,28.90
2019-02-02T20:32:52.201Z,27.67
2019-02-02T20:35:20.785Z,28.93
2019-02-02T20:37:49.800Z,25.77
2019-02-02T20:40:22.877Z,27.77
2019-02-02T20:42:51.540Z,23.53
2019-02-02T20:45:25.595Z,25.40
2019-02-02T20:47:55.574Z,18.90
2019-02-02T20:50:24.149Z,30.23
2019-02-02T20:52:52.715Z,27.03
2019-02-02T20:55:24.326Z,30.90
2019-02-02T20:57:53.101Z,35.80
2019-02-02T21:00:24.044Z,27.30
2019-02-02T21:02:52.724Z,30.87
2019-02-02T21:05:21.225Z,30.70
2019-02-02T21:07:49.868Z,28.27
2019-02-02T21:10:20.854Z,27.13
2019-02-02T21:12:49.836Z,26.67
2019-02-02T21:15:18.606Z,26.37
2019-02-02T21:17:47.288Z,27.63
2019-02-02T21:20:17.968Z,28.73
2019-02-02T21:22:47.189Z,30.27
2019-02-02T21:25:16.566Z,27.33
2019-02-02T21:27:45.132Z,31.77
2019-02-02T21:30:22.324Z,33.07
2019-02-02T21:32:51.848Z,29.97
2019-02-02T21:35:20.800Z,25.77
2019-02-02T21:37:50.334Z,20.43
2019-02-02T21:40:24.338Z,30.23
2019-02-02T21:42:52.925Z,30.80
2019-02-02T21:45:24.412Z,28.53
2019-02-02T21:47:53.390Z,32.83
2019-02-02T21:50:24.214Z,25.77
2019-02-02T21:52:52.817Z,24.83
2019-02-02T21:55:26.014Z,25.07
2019-02-02T21:57:54.592Z,21.80
2019-02-02T22:00:34.571Z,23.60
2019-02-02T22:03:03.128Z,23.37
2019-02-02T22:05:31.701Z,26.53
2019-02-02T22:08:00.307Z,27.17
2019-02-02T22:10:28.961Z,31.80
2019-02-02T22:12:58.002Z,27.93
2019-02-02T22:15:27.792Z,32.60
2019-02-02T22:17:56.380Z,30.27
2019-02-02T22:20:25.036Z,32.80
2019-02-02T22:22:54.418Z,32.77
2019-02-02T22:25:31.151Z,34.73
2019-02-02T22:27:59.805Z,34.47
2019-02-02T22:30:33.148Z,32.00
2019-02-02T22:33:01.716Z,29.10
2019-02-02T22:35:30.251Z,32.50
2019-02-02T22:37:59.039Z,25.50
2019-02-02T22:40:28.585Z,26.60
2019-02-02T22:42:57.255Z,27.30
2019-02-02T22:45:25.816Z,25.50
2019-02-02T22:47:54.395Z,29.40
2019-02-02T22:50:27.239Z,28.50
2019-02-02T22:52:55.877Z,24.37
2019-02-02T22:55:24.917Z,28.67
2019-02-02T22:57:54.195Z,29.73
2019-02-02T23:00:56.532Z,27.37
2019-02-02T23:03:31.289Z,28.00
2019-02-02T23:06:15.103Z,26.60
2019-02-02T23:09:20.059Z,27.77
2019-02-02T23:12:11.291Z,24.33
2019-02-02T23:15:03.969Z,28.97
2019-02-02T23:17:32.952Z,24.37
2019-02-02T23:20:01.896Z,29.77
2019-02-02T23:22:30.499Z,33.30
2019-02-02T23:24:59.074Z,26.27
2019-02-02T23:27:27.712Z,31.17
2019-02-02T23:29:56.391Z,26.37
2019-02-02T23:32:25.025Z,30.50
2019-02-02T23:34:53.598Z,29.73
2019-02-02T23:37:23.186Z,35.00
2019-02-02T23:39:51.809Z,32.80
2019-02-02T23:42:20.403Z,28.37
2019-02-02T23:44:49.005Z,36.50
2019-02-02T23:47:17.871Z,34.80
2019-02-02T23:49:46.434Z,32.17
2019-02-02T23:52:15.048Z,34.87
2019-02-02T23:54:43.608Z,31.27
2019-02-02T23:57:12.254Z,36.77
2019-02-02T23:59:40.937Z,31.13
